createdAt,value
2023-05-13T00:00:39.083Z,2.78
2023-05-13T00:03:07.255Z,2.78
2023-05-13T00:05:35.065Z,2.65
2023-05-13T00:08:07.089Z,2.70
2023-05-13T00:10:36.949Z,2.65
2023-05-13T00:13:05.011Z,2.90
2023-05-13T00:15:33.595Z,3.08
2023-05-13T00:18:01.883Z,2.83
2023-05-13T00:20:30.056Z,3.20
2023-05-13T00:22:58.121Z,3.35
2023-05-13T00:25:28.343Z,3.20
2023-05-13T00:27:59.519Z,3.03
2023-05-13T00:30:27.269Z,3.33
2023-05-13T00:32:55.260Z,3.05
2023-05-13T00:35:23.010Z,3.30
2023-05-13T00:37:50.740Z,3.40
2023-05-13T00:40:22.199Z,3.00
2023-05-13T00:42:50.624Z,3.22
2023-05-13T00:45:19.983Z,3.20
2023-05-13T00:47:49.697Z,3.05
2023-05-13T00:50:17.591Z,3.33
2023-05-13T00:52:45.719Z,3.30
2023-05-13T00:55:13.680Z,4.00
2023-05-13T00:57:41.448Z,4.05
2023-05-13T01:00:10.426Z,4.20
2023-05-13T01:02:51.311Z,4.10
2023-05-13T01:05:28.280Z,3.65
2023-05-13T01:08:04.044Z,3.70
2023-05-13T01:10:42.851Z,3.75
2023-05-13T01:13:14.112Z,3.95
2023-05-13T01:15:48.790Z,4.00
2023-05-13T01:18:21.759Z,3.63
2023-05-13T01:20:50.068Z,5.20
2023-05-13T01:23:19.153Z,4.68
2023-05-13T01:25:47.890Z,4.93
2023-05-13T01:28:15.752Z,5.72
2023-05-13T01:30:43.495Z,5.90
2023-05-13T01:33:11.891Z,5.10
2023-05-13T01:35:39.986Z,5.88
2023-05-13T01:38:08.546Z,5.63
2023-05-13T01:40:39.355Z,5.90
2023-05-13T01:43:07.310Z,5.93
2023-05-13T01:45:35.016Z,5.60
2023-05-13T01:48:03.327Z,5.50
2023-05-13T01:50:31.321Z,5.28
2023-05-13T01:52:59.397Z,5.00
2023-05-13T01:55:27.162Z,4.95
2023-05-13T01:57:56.597Z,4.80
2023-05-13T02:00:24.531Z,4.93
2023-05-13T02:02:52.910Z,5.00
2023-05-13T02:05:20.730Z,4.90
2023-05-13T02:07:48.361Z,5.10
2023-05-13T02:10:16.288Z,4.63
2023-05-13T02:12:44.961Z,4.90
2023-05-13T02:15:14.263Z,4.90
2023-05-13T02:17:42.380Z,4.35
2023-05-13T02:20:11.557Z,5.10
2023-05-13T02:22:39.293Z,5.13
2023-05-13T02:25:08.216Z,4.72
2023-05-13T02:27:35.953Z,5.00
2023-05-13T02:30:03.636Z,5.43
2023-05-13T02:32:32.764Z,4.97
2023-05-13T02:35:00.571Z,5.37
2023-05-13T02:37:29.138Z,5.10
2023-05-13T02:39:57.073Z,5.00
2023-05-13T02:42:24.834Z,4.50
2023-05-13T02:44:52.743Z,4.80
2023-05-13T02:47:20.419Z,5.10
2023-05-13T02:49:49.808Z,4.75
2023-05-13T02:52:17.551Z,5.18
2023-05-13T02:54:45.597Z,5.65
2023-05-13T02:57:13.356Z,5.80
2023-05-13T02:59:41.075Z,6.30
2023-05-13T03:02:08.834Z,5.57
2023-05-13T03:04:36.969Z,5.65
2023-05-13T03:07:06.379Z,5.80
2023-05-13T03:09:35.166Z,6.57
2023-05-13T03:12:03.069Z,6.77
2023-05-13T03:14:31.144Z,6.95
2023-05-13T03:16:58.956Z,6.77
2023-05-13T03:19:26.572Z,7.35
2023-05-13T03:21:54.321Z,8.57
2023-05-13T03:24:23.374Z,8.82
2023-05-13T03:26:51.395Z,9.13
2023-05-13T03:29:19.120Z,8.50
2023-05-13T03:31:47.151Z,8.67
2023-05-13T03:34:14.922Z,8.68
2023-05-13T03:36:42.871Z,8.68
2023-05-13T03:39:10.789Z,8.30
2023-05-13T03:41:39.923Z,8.50
2023-05-13T03:44:07.641Z,8.43
2023-05-13T03:46:35.703Z,8.60
2023-05-13T03:49:03.468Z,8.30
2023-05-13T03:51:31.410Z,8.35
2023-05-13T03:53:59.140Z,8.00
2023-05-13T03:56:26.796Z,8.33
2023-05-13T03:58:55.960Z,8.32
2023-05-13T04:01:23.756Z,8.35
2023-05-13T04:03:51.791Z,7.90
2023-05-13T04:06:19.531Z,7.57
2023-05-13T04:08:48.938Z,7.68
2023-05-13T04:11:16.647Z,7.82
2023-05-13T04:13:45.961Z,7.65
2023-05-13T04:16:15.432Z,7.63
2023-05-13T04:18:43.531Z,7.45
2023-05-13T04:21:11.413Z,7.55
2023-05-13T04:23:41.222Z,7.43
2023-05-13T04:26:09.055Z,7.27
2023-05-13T04:28:36.766Z,7.80
2023-05-13T04:31:04.790Z,7.40
2023-05-13T04:33:33.966Z,7.75
2023-05-13T04:36:01.829Z,7.53
2023-05-13T04:38:29.649Z,7.68
2023-05-13T04:40:57.452Z,7.40
2023-05-13T04:43:25.524Z,7.70
2023-05-13T04:45:53.747Z,7.55
2023-05-13T04:48:21.519Z,7.47
2023-05-13T04:50:52.437Z,7.22
2023-05-13T04:53:20.975Z,7.20
2023-05-13T04:55:50.245Z,7.43
2023-05-13T04:58:18.059Z,7.20
2023-05-13T05:00:45.880Z,7.47
2023-05-13T05:03:16.088Z,7.55
2023-05-13T05:05:43.811Z,8.05
2023-05-13T05:08:12.914Z,8.00
2023-05-13T05:10:40.820Z,7.53
2023-05-13T05:13:08.612Z,7.00
2023-05-13T05:15:36.407Z,7.40
2023-05-13T05:18:04.444Z,6.40
2023-05-13T05:20:34.839Z,6.22
2023-05-13T05:23:02.678Z,6.22
2023-05-13T05:25:35.087Z,6.30
2023-05-13T05:28:04.951Z,6.00
2023-05-13T05:30:39.756Z,5.80
2023-05-13T05:33:08.313Z,4.95
2023-05-13T05:35:37.330Z,5.00
2023-05-13T05:38:05.829Z,4.85
2023-05-13T05:40:36.744Z,5.00
2023-05-13T05:43:04.714Z,4.30
2023-05-13T05:45:32.791Z,4.10
2023-05-13T05:48:00.641Z,4.57
2023-05-13T05:50:29.084Z,4.60
2023-05-13T05:52:57.334Z,4.28
2023-05-13T05:55:25.231Z,4.10
2023-05-13T05:57:54.444Z,3.55
2023-05-13T06:00:22.815Z,3.55
2023-05-13T06:02:51.219Z,3.75
2023-05-13T06:05:19.237Z,3.80
2023-05-13T06:07:46.907Z,3.33
2023-05-13T06:10:14.809Z,3.60
2023-05-13T06:12:42.723Z,3.40
2023-05-13T06:15:12.439Z,3.20
2023-05-13T06:17:40.766Z,3.38
2023-05-13T06:20:09.246Z,3.60
2023-05-13T06:22:39.525Z,3.40
2023-05-13T06:25:07.755Z,3.60
2023-05-13T06:27:35.522Z,3.50
2023-05-13T06:30:03.565Z,3.30
2023-05-13T06:32:32.820Z,3.20
2023-05-13T06:35:00.807Z,3.20
2023-05-13T06:37:31.618Z,3.20
2023-05-13T06:40:00.147Z,3.40
2023-05-13T06:42:28.144Z,3.20
2023-05-13T06:44:56.117Z,2.65
2023-05-13T06:47:24.259Z,2.80
2023-05-13T06:49:53.712Z,2.90
2023-05-13T06:52:21.556Z,2.70
2023-05-13T06:54:49.343Z,2.50
2023-05-13T06:57:17.207Z,2.60
2023-05-13T06:59:45.905Z,2.50
2023-05-13T07:02:14.197Z,2.35
2023-05-13T07:04:41.957Z,3.70
2023-05-13T07:07:11.157Z,2.80
2023-05-13T07:09:39.008Z,2.50
2023-05-13T07:12:07.548Z,2.72
2023-05-13T07:14:35.246Z,2.50
2023-05-13T07:17:03.606Z,2.95
2023-05-13T07:19:31.746Z,2.83
2023-05-13T07:21:59.519Z,2.70
2023-05-13T07:24:28.627Z,2.90
2023-05-13T07:26:56.506Z,2.78
2023-05-13T07:29:25.912Z,2.55
2023-05-13T07:31:55.112Z,2.45
2023-05-13T07:34:23.279Z,2.50
2023-05-13T07:36:51.039Z,2.85
2023-05-13T07:39:19.117Z,2.35
2023-05-13T07:41:48.284Z,2.05
2023-05-13T07:44:16.091Z,2.20
2023-05-13T07:46:44.524Z,2.50
2023-05-13T07:49:12.345Z,2.30
2023-05-13T07:51:40.292Z,2.53
2023-05-13T07:54:08.090Z,2.40
2023-05-13T07:56:35.904Z,2.28
2023-05-13T07:59:07.493Z,2.60
2023-05-13T08:01:35.693Z,2.30
2023-05-13T08:04:03.549Z,2.63
2023-05-13T08:06:32.812Z,2.50
2023-05-13T08:09:01.381Z,2.50
2023-05-13T08:11:29.856Z,2.33
2023-05-13T08:13:58.647Z,2.40
2023-05-13T08:16:27.783Z,2.40
2023-05-13T08:18:56.360Z,2.70
2023-05-13T08:21:24.310Z,2.65
2023-05-13T08:23:52.184Z,2.72
2023-05-13T08:26:20.237Z,2.65
2023-05-13T08:28:48.356Z,2.60
2023-05-13T08:31:16.846Z,2.47
2023-05-13T08:33:48.492Z,2.90
2023-05-13T08:36:16.341Z,2.90
2023-05-13T08:38:44.655Z,2.83
2023-05-13T08:41:14.244Z,3.00
2023-05-13T08:43:44.047Z,2.75
2023-05-13T08:46:13.087Z,3.00
2023-05-13T08:48:42.938Z,3.08
2023-05-13T08:51:12.836Z,3.22
2023-05-13T08:53:41.596Z,3.10
2023-05-13T08:56:10.898Z,2.80
2023-05-13T08:58:38.835Z,2.90
2023-05-13T09:01:09.023Z,2.90
2023-05-13T09:03:42.037Z,3.00
2023-05-13T09:06:09.847Z,3.13
2023-05-13T09:08:39.247Z,3.10
2023-05-13T09:11:07.438Z,3.00
2023-05-13T09:13:35.129Z,3.00
2023-05-13T09:16:03.283Z,2.75
2023-05-13T09:18:32.444Z,2.90
2023-05-13T09:21:22.842Z,2.80
2023-05-13T09:23:56.746Z,3.00
2023-05-13T09:26:29.047Z,2.90
2023-05-13T09:29:22.270Z,3.00
2023-05-13T09:31:51.751Z,3.00
2023-05-13T09:34:27.664Z,3.20
2023-05-13T09:37:03.631Z,3.00
2023-05-13T09:39:39.640Z,3.03
2023-05-13T09:42:15.704Z,2.90
2023-05-13T09:44:44.136Z,2.67
2023-05-13T09:47:13.966Z,2.88
2023-05-13T09:49:42.849Z,2.58
2023-05-13T09:52:11.998Z,2.47
2023-05-13T09:54:41.438Z,2.67
2023-05-13T09:57:11.562Z,2.50
2023-05-13T09:59:39.725Z,2.35
2023-05-13T10:02:09.043Z,3.30
2023-05-13T10:04:36.736Z,3.00
2023-05-13T10:07:06.883Z,2.50
2023-05-13T10:09:37.686Z,2.60
2023-05-13T10:12:08.965Z,2.50
2023-05-13T10:14:38.119Z,2.50
2023-05-13T10:17:06.728Z,2.25
2023-05-13T10:19:36.008Z,2.40
2023-05-13T10:22:04.960Z,2.60
2023-05-13T10:24:33.712Z,2.30
2023-05-13T10:27:03.124Z,2.40
2023-05-13T10:29:32.871Z,2.50
2023-05-13T10:32:01.463Z,2.10
2023-05-13T10:34:31.709Z,2.10
2023-05-13T10:37:12.414Z,2.40
2023-05-13T10:40:06.287Z,2.30
2023-05-13T10:42:42.738Z,2.38
2023-05-13T10:45:12.450Z,2.40
2023-05-13T10:47:40.412Z,2.50
2023-05-13T10:50:24.142Z,2.50
2023-05-13T10:53:07.269Z,2.22
2023-05-13T10:55:41.903Z,7.43
2023-05-13T10:58:12.327Z,2.47
2023-05-13T11:00:43.787Z,4.05
2023-05-13T11:03:17.080Z,2.42
2023-05-13T11:05:47.617Z,2.35
2023-05-13T11:08:39.954Z,2.17
2023-05-13T11:11:35.743Z,2.30
2023-05-13T11:14:25.247Z,2.35
2023-05-13T11:17:09.573Z,2.00
2023-05-13T11:19:39.088Z,2.40
2023-05-13T11:22:11.324Z,2.05
2023-05-13T11:24:39.751Z,2.17
2023-05-13T11:27:15.344Z,1.95
2023-05-13T11:29:50.592Z,2.10
2023-05-13T11:32:56.482Z,2.10
2023-05-13T11:35:26.378Z,2.63
2023-05-13T11:37:54.518Z,2.10
2023-05-13T11:40:23.762Z,3.33
2023-05-13T11:42:52.239Z,6.88
2023-05-13T11:45:21.897Z,2.20
2023-05-13T11:47:49.966Z,2.50
2023-05-13T11:50:24.083Z,2.40
2023-05-13T11:52:54.011Z,2.30
2023-05-13T11:55:28.943Z,2.50
2023-05-13T11:57:57.194Z,2.47
2023-05-13T12:00:28.963Z,2.67
2023-05-13T12:02:57.579Z,2.10
2023-05-13T12:05:27.596Z,2.38
2023-05-13T12:07:58.375Z,2.28
2023-05-13T12:10:27.394Z,2.58
2023-05-13T12:12:55.437Z,2.50
2023-05-13T12:15:23.842Z,2.30
2023-05-13T12:17:52.168Z,2.17
2023-05-13T12:20:21.437Z,2.50
2023-05-13T12:22:56.951Z,2.35
2023-05-13T12:25:51.427Z,2.63
2023-05-13T12:28:21.342Z,2.40
2023-05-13T12:30:53.841Z,2.28
2023-05-13T12:33:23.082Z,2.30
2023-05-13T12:35:52.776Z,2.47
2023-05-13T12:38:24.399Z,2.45
2023-05-13T12:40:54.681Z,2.40
2023-05-13T12:43:22.781Z,2.43
2023-05-13T12:45:55.664Z,2.55
2023-05-13T12:48:26.897Z,2.40
2023-05-13T12:50:56.568Z,2.40
2023-05-13T12:53:26.513Z,2.33
2023-05-13T12:55:54.596Z,2.20
2023-05-13T12:58:22.610Z,2.35
2023-05-13T13:00:50.708Z,2.67
2023-05-13T13:03:20.467Z,2.40
2023-05-13T13:05:49.739Z,2.58
2023-05-13T13:08:17.573Z,2.38
2023-05-13T13:10:46.766Z,2.42
2023-05-13T13:13:14.579Z,2.20
2023-05-13T13:15:42.645Z,2.50
2023-05-13T13:18:10.620Z,2.47
2023-05-13T13:20:38.761Z,2.13
2023-05-13T13:23:06.843Z,2.40
2023-05-13T13:25:34.724Z,2.50
2023-05-13T13:28:04.002Z,2.40
2023-05-13T13:30:32.084Z,2.17
2023-05-13T13:32:59.941Z,2.67
2023-05-13T13:35:28.019Z,2.33
2023-05-13T13:37:56.043Z,2.23
2023-05-13T13:40:24.225Z,2.45
2023-05-13T13:42:52.236Z,2.55
2023-05-13T13:45:24.090Z,2.50
2023-05-13T13:47:52.075Z,2.50
2023-05-13T13:50:19.847Z,2.50
2023-05-13T13:52:47.808Z,2.50
2023-05-13T13:55:16.068Z,2.13
2023-05-13T13:57:43.874Z,2.60
2023-05-13T14:00:13.017Z,2.70
2023-05-13T14:02:42.663Z,2.55
2023-05-13T14:05:10.934Z,2.70
2023-05-13T14:07:38.872Z,3.77
2023-05-13T14:10:08.687Z,4.72
2023-05-13T14:12:37.078Z,7.65
2023-05-13T14:15:05.639Z,8.73
2023-05-13T14:17:33.439Z,11.17
2023-05-13T14:20:03.124Z,7.45
2023-05-13T14:22:30.981Z,10.93
2023-05-13T14:25:00.213Z,9.50
2023-05-13T14:27:28.175Z,14.88
2023-05-13T14:29:55.863Z,6.55
2023-05-13T14:32:23.750Z,5.50
2023-05-13T14:34:52.280Z,7.40
2023-05-13T14:37:21.711Z,5.80
2023-05-13T14:39:50.291Z,5.18
2023-05-13T14:42:18.491Z,6.30
2023-05-13T14:44:46.254Z,6.40
2023-05-13T14:47:14.325Z,6.80
2023-05-13T14:49:42.288Z,5.95
2023-05-13T14:52:12.818Z,6.55
2023-05-13T14:54:42.026Z,7.72
2023-05-13T14:57:12.265Z,7.10
2023-05-13T14:59:40.113Z,7.03
2023-05-13T15:02:08.418Z,6.60
2023-05-13T15:04:36.435Z,6.57
2023-05-13T15:07:05.671Z,6.40
2023-05-13T15:09:33.438Z,6.47
2023-05-13T15:12:02.554Z,7.17
2023-05-13T15:14:30.422Z,6.70
2023-05-13T15:16:58.370Z,7.00
2023-05-13T15:19:26.459Z,7.03
2023-05-13T15:21:54.524Z,7.00
2023-05-13T15:24:22.822Z,7.05
2023-05-13T15:26:51.213Z,7.97
2023-05-13T15:29:21.779Z,6.80
2023-05-13T15:31:51.350Z,7.55
2023-05-13T15:34:19.468Z,13.52
2023-05-13T15:36:47.267Z,18.63
2023-05-13T15:39:16.556Z,8.10
2023-05-13T15:41:44.995Z,32.42
2023-05-13T15:44:13.060Z,9.88
2023-05-13T15:46:42.514Z,13.27
2023-05-13T15:49:12.523Z,9.77
2023-05-13T15:51:40.466Z,19.35
2023-05-13T15:54:08.643Z,5.20
2023-05-13T15:56:36.741Z,6.38
2023-05-13T15:59:05.882Z,5.43
2023-05-13T16:01:34.293Z,4.50
2023-05-13T16:04:03.842Z,6.93
2023-05-13T16:06:31.797Z,9.67
2023-05-13T16:09:02.242Z,6.88
2023-05-13T16:11:30.299Z,6.70
2023-05-13T16:14:00.972Z,5.20
2023-05-13T16:16:29.591Z,8.50
2023-05-13T16:18:58.433Z,7.73
2023-05-13T16:21:28.050Z,16.83
2023-05-13T16:23:56.105Z,34.17
2023-05-13T16:26:26.051Z,15.00
2023-05-13T16:28:53.820Z,5.30
2023-05-13T16:31:21.791Z,4.65
2023-05-13T16:33:50.041Z,6.43
2023-05-13T16:36:18.024Z,5.07
2023-05-13T16:38:47.631Z,4.78
2023-05-13T16:41:15.421Z,4.30
2023-05-13T16:43:43.594Z,4.77
2023-05-13T16:46:11.375Z,6.40
2023-05-13T16:48:39.313Z,6.57
2023-05-13T16:51:07.266Z,5.05
2023-05-13T16:53:35.101Z,4.30
2023-05-13T16:56:04.807Z,4.43
2023-05-13T16:58:32.659Z,4.40
2023-05-13T17:01:01.031Z,22.38
2023-05-13T17:03:29.137Z,13.95
2023-05-13T17:05:57.047Z,13.20
2023-05-13T17:08:25.490Z,5.40
2023-05-13T17:10:53.370Z,4.73
2023-05-13T17:13:22.960Z,3.83
2023-05-13T17:15:50.830Z,3.58
2023-05-13T17:18:18.817Z,3.72
2023-05-13T17:20:46.884Z,3.70
2023-05-13T17:23:17.324Z,48.33
2023-05-13T17:25:45.054Z,12.18
2023-05-13T17:28:12.966Z,10.18
2023-05-13T17:30:42.297Z,8.60
2023-05-13T17:33:10.558Z,7.45
2023-05-13T17:35:38.768Z,19.23
2023-05-13T17:38:06.713Z,8.70
2023-05-13T17:40:35.000Z,26.77
2023-05-13T17:43:03.944Z,27.17
2023-05-13T17:45:31.750Z,12.85
2023-05-13T17:48:01.413Z,15.60
2023-05-13T17:50:32.036Z,8.18
2023-05-13T17:53:01.847Z,7.22
2023-05-13T17:55:31.216Z,7.15
2023-05-13T18:02:15.619Z,8.40
2023-05-13T18:05:07.291Z,7.88
2023-05-13T18:07:53.876Z,12.20
2023-05-13T18:11:08.731Z,16.58
2023-05-13T18:13:48.463Z,15.90
2023-05-13T18:16:32.546Z,13.20
2023-05-13T18:19:11.377Z,8.35
2023-05-13T18:21:54.580Z,9.80
2023-05-13T18:24:23.538Z,17.67
2023-05-13T18:27:00.253Z,9.40
2023-05-13T18:29:32.918Z,10.25
2023-05-13T18:32:02.168Z,17.10
2023-05-13T18:34:36.128Z,10.32
2023-05-13T18:37:08.381Z,9.52
2023-05-13T18:39:49.137Z,9.52
2023-05-13T18:42:17.738Z,12.40
2023-05-13T18:44:48.409Z,11.70
2023-05-13T18:47:16.729Z,9.82
2023-05-13T18:49:45.974Z,10.80
2023-05-13T18:52:18.469Z,9.73
2023-05-13T18:55:00.910Z,10.00
2023-05-13T18:57:30.121Z,10.43
2023-05-13T18:59:58.623Z,10.25
2023-05-13T19:02:30.984Z,9.80
2023-05-13T19:05:03.704Z,9.63
2023-05-13T19:07:34.258Z,9.45
2023-05-13T19:10:03.138Z,9.68
2023-05-13T19:12:36.321Z,10.50
2023-05-13T19:15:05.411Z,11.43
2023-05-13T19:17:45.070Z,10.45
2023-05-13T19:20:24.042Z,10.50
2023-05-13T19:23:13.258Z,11.10
2023-05-13T19:26:04.403Z,11.02
2023-05-13T19:28:42.369Z,10.30
2023-05-13T19:31:15.219Z,10.75
2023-05-13T19:33:57.028Z,10.40
2023-05-13T19:36:32.398Z,10.50
2023-05-13T19:39:16.191Z,9.75
2023-05-13T19:41:44.955Z,10.15
2023-05-13T19:44:18.566Z,9.93
2023-05-13T19:46:55.646Z,9.55
2023-05-13T19:49:38.940Z,9.80
2023-05-13T19:52:07.982Z,9.07
2023-05-13T19:54:39.019Z,9.00
2023-05-13T19:57:07.741Z,8.47
2023-05-13T19:59:35.960Z,9.00
2023-05-13T20:02:08.229Z,8.90
2023-05-13T20:04:36.060Z,9.30
2023-05-13T20:07:04.394Z,9.40
2023-05-13T20:09:40.960Z,9.45
2023-05-13T20:12:28.856Z,9.52
2023-05-13T20:15:27.023Z,10.10
2023-05-13T20:18:25.089Z,10.40
2023-05-13T20:20:53.809Z,11.10
2023-05-13T20:23:21.596Z,11.33
2023-05-13T20:25:49.572Z,11.02
2023-05-13T20:28:18.790Z,10.88
2023-05-13T20:30:46.665Z,11.32
2023-05-13T20:33:14.465Z,11.10
2023-05-13T20:35:42.370Z,11.10
2023-05-13T20:38:10.171Z,11.85
2023-05-13T20:40:37.967Z,11.40
2023-05-13T20:43:07.628Z,10.98
2023-05-13T20:45:39.547Z,10.73
2023-05-13T20:48:08.114Z,10.30
2023-05-13T20:50:38.346Z,10.15
2023-05-13T20:53:06.217Z,9.20
2023-05-13T20:55:33.930Z,9.73
2023-05-13T20:58:01.959Z,9.83
2023-05-13T21:00:29.855Z,10.17
2023-05-13T21:02:59.071Z,10.80
2023-05-13T21:05:26.961Z,10.67
2023-05-13T21:07:54.940Z,11.10
2023-05-13T21:10:23.046Z,11.18
2023-05-13T21:13:06.005Z,11.60
2023-05-13T21:15:33.829Z,11.40
2023-05-13T21:18:03.328Z,11.32
2023-05-13T21:20:32.621Z,10.90
2023-05-13T21:23:01.324Z,10.95
2023-05-13T21:25:30.223Z,10.43
2023-05-13T21:27:58.047Z,10.38
2023-05-13T21:30:26.295Z,10.70
2023-05-13T21:32:54.534Z,11.00
2023-05-13T21:35:23.668Z,10.88
2023-05-13T21:37:52.387Z,10.90
2023-05-13T21:40:24.161Z,10.30
2023-05-13T21:42:52.185Z,10.48
2023-05-13T21:45:20.666Z,10.27
2023-05-13T21:47:48.364Z,10.70
2023-05-13T21:50:16.545Z,10.60
2023-05-13T21:52:45.756Z,10.20
2023-05-13T21:55:13.704Z,10.45
2023-05-13T21:57:41.533Z,10.77
2023-05-13T22:00:15.093Z,10.25
2023-05-13T22:02:43.316Z,10.02
2023-05-13T22:05:11.392Z,10.32
2023-05-13T22:07:39.208Z,10.18
2023-05-13T22:10:09.369Z,10.70
2023-05-13T22:12:37.197Z,10.40
2023-05-13T22:15:05.547Z,10.93
2023-05-13T22:17:33.327Z,11.20
2023-05-13T22:20:01.240Z,11.23
2023-05-13T22:22:28.949Z,11.55
2023-05-13T22:24:56.673Z,11.75
2023-05-13T22:27:25.722Z,11.68
2023-05-13T22:29:53.536Z,11.52
2023-05-13T22:32:21.413Z,11.23
2023-05-13T22:34:49.131Z,11.18
2023-05-13T22:37:16.905Z,11.40
2023-05-13T22:39:44.659Z,11.60
2023-05-13T22:42:12.655Z,12.38
2023-05-13T22:44:41.800Z,11.82
2023-05-13T22:47:09.567Z,11.90
2023-05-13T22:49:37.335Z,11.38
2023-05-13T22:52:05.886Z,11.18
2023-05-13T22:54:33.653Z,10.90
2023-05-13T22:57:01.431Z,11.43
2023-05-13T22:59:29.202Z,11.10
2023-05-13T23:01:59.025Z,11.15
2023-05-13T23:04:26.973Z,10.25
2023-05-13T23:06:54.680Z,10.00
2023-05-13T23:09:22.439Z,10.70
2023-05-13T23:11:50.323Z,10.45
2023-05-13T23:14:18.052Z,10.90
2023-05-13T23:16:45.910Z,11.18
2023-05-13T23:19:15.160Z,11.57
2023-05-13T23:21:43.105Z,12.20
2023-05-13T23:24:10.980Z,12.63
2023-05-13T23:26:38.809Z,13.03
2023-05-13T23:29:06.668Z,13.75
2023-05-13T23:31:34.425Z,14.52
2023-05-13T23:34:02.363Z,14.05
2023-05-13T23:36:31.584Z,14.70
2023-05-13T23:38:59.476Z,13.52
2023-05-13T23:41:27.221Z,13.75
2023-05-13T23:43:55.048Z,14.05
2023-05-13T23:46:22.902Z,15.27
2023-05-13T23:48:50.633Z,14.80
2023-05-13T23:51:18.553Z,14.88
2023-05-13T23:53:47.660Z,14.75
2023-05-13T23:56:15.472Z,14.90
2023-05-13T23:58:44.023Z,14.57
